sensor_id;sensor_type;location;lat;lon;timestamp;temperature;humidity
16160;DHT22;8185;57.818;15.224;2022-09-09T00:01:01;10.10;99.90
16160;DHT22;8185;57.818;15.224;2022-09-09T00:03:37;10.10;99.90
16160;DHT22;8185;57.818;15.224;2022-09-09T00:06:10;10.10;99.90
16160;DHT22;8185;57.818;15.224;2022-09-09T00:08:52;10.10;99.90
16160;DHT22;8185;57.818;15.224;2022-09-09T00:11:28;10.10;99.90
16160;DHT22;8185;57.818;15.224;2022-09-09T00:14:01;10.20;99.90
16160;DHT22;8185;57.818;15.224;2022-09-09T00:16:32;10.20;99.90
16160;DHT22;8185;57.818;15.224;2022-09-09T00:19:05;10.20;99.90
16160;DHT22;8185;57.818;15.224;2022-09-09T00:21:36;10.20;99.90
16160;DHT22;8185;57.818;15.224;2022-09-09T00:24:11;10.30;99.90
16160;DHT22;8185;57.818;15.224;2022-09-09T00:26:44;10.30;99.90
16160;DHT22;8185;57.818;15.224;2022-09-09T00:29:22;10.30;99.90
16160;DHT22;8185;57.818;15.224;2022-09-09T00:31:54;10.30;99.90
16160;DHT22;8185;57.818;15.224;2022-09-09T00:34:26;10.30;99.90
16160;DHT22;8185;57.818;15.224;2022-09-09T00:36:55;10.40;99.90
16160;DHT22;8185;57.818;15.224;2022-09-09T00:39:30;10.40;99.90
16160;DHT22;8185;57.818;15.224;2022-09-09T00:42:12;10.40;99.90
16160;DHT22;8185;57.818;15.224;2022-09-09T00:44:53;10.40;99.90
16160;DHT22;8185;57.818;15.224;2022-09-09T00:47:43;10.40;99.90
16160;DHT22;8185;57.818;15.224;2022-09-09T00:50:39;10.40;99.90
16160;DHT22;8185;57.818;15.224;2022-09-09T00:53:19;10.50;99.90
16160;DHT22;8185;57.818;15.224;2022-09-09T00:55:58;10.50;99.90
16160;DHT22;8185;57.818;15.224;2022-09-09T00:58:28;10.50;99.90
16160;DHT22;8185;57.818;15.224;2022-09-09T01:01:00;10.50;99.90
16160;DHT22;8185;57.818;15.224;2022-09-09T01:03:34;10.60;99.90
16160;DHT22;8185;57.818;15.224;2022-09-09T01:06:11;10.60;99.90
16160;DHT22;8185;57.818;15.224;2022-09-09T01:08:56;10.60;99.90
16160;DHT22;8185;57.818;15.224;2022-09-09T01:11:28;10.60;99.90
16160;DHT22;8185;57.818;15.224;2022-09-09T01:14:05;10.70;99.90
16160;DHT22;8185;57.818;15.224;2022-09-09T01:16:38;10.60;99.90
16160;DHT22;8185;57.818;15.224;2022-09-09T01:19:11;10.70;99.90
16160;DHT22;8185;57.818;15.224;2022-09-09T01:21:47;10.70;99.90
16160;DHT22;8185;57.818;15.224;2022-09-09T01:24:27;10.70;99.90
16160;DHT22;8185;57.818;15.224;2022-09-09T01:27:00;10.70;99.90
16160;DHT22;8185;57.818;15.224;2022-09-09T01:29:28;10.70;99.90
16160;DHT22;8185;57.818;15.224;2022-09-09T01:31:57;10.70;99.90
16160;DHT22;8185;57.818;15.224;2022-09-09T01:34:26;10.70;99.90
16160;DHT22;8185;57.818;15.224;2022-09-09T01:36:59;10.70;99.90
16160;DHT22;8185;57.818;15.224;2022-09-09T01:39:27;10.70;99.90
16160;DHT22;8185;57.818;15.224;2022-09-09T01:41:56;10.70;99.90
16160;DHT22;8185;57.818;15.224;2022-09-09T01:44:25;10.80;99.90
16160;DHT22;8185;57.818;15.224;2022-09-09T01:46:54;10.80;99.90
16160;DHT22;8185;57.818;15.224;2022-09-09T01:49:21;10.80;99.90
16160;DHT22;8185;57.818;15.224;2022-09-09T01:51:51;10.80;99.90
16160;DHT22;8185;57.818;15.224;2022-09-09T01:54:19;10.80;99.90
16160;DHT22;8185;57.818;15.224;2022-09-09T01:56:53;10.80;99.90
16160;DHT22;8185;57.818;15.224;2022-09-09T02:02:18;10.90;99.90
16160;DHT22;8185;57.818;15.224;2022-09-09T02:04:48;10.90;99.90
16160;DHT22;8185;57.818;15.224;2022-09-09T02:07:38;10.90;99.90
16160;DHT22;8185;57.818;15.224;2022-09-09T02:10:11;10.80;99.90
16160;DHT22;8185;57.818;15.224;2022-09-09T02:12:42;10.90;99.90
16160;DHT22;8185;57.818;15.224;2022-09-09T02:15:20;10.90;99.90
16160;DHT22;8185;57.818;15.224;2022-09-09T02:17:51;10.90;99.90
16160;DHT22;8185;57.818;15.224;2022-09-09T02:20:20;10.90;99.90
16160;DHT22;8185;57.818;15.224;2022-09-09T02:22:50;10.80;99.90
16160;DHT22;8185;57.818;15.224;2022-09-09T02:25:21;10.80;99.90
16160;DHT22;8185;57.818;15.224;2022-09-09T02:27:50;10.80;99.90
16160;DHT22;8185;57.818;15.224;2022-09-09T02:30:20;10.80;99.90
16160;DHT22;8185;57.818;15.224;2022-09-09T02:32:49;10.80;99.90
16160;DHT22;8185;57.818;15.224;2022-09-09T02:35:21;10.70;99.90
16160;DHT22;8185;57.818;15.224;2022-09-09T02:37:51;10.60;99.90
16160;DHT22;8185;57.818;15.224;2022-09-09T02:40:19;10.50;99.90
16160;DHT22;8185;57.818;15.224;2022-09-09T02:42:48;10.50;99.90
16160;DHT22;8185;57.818;15.224;2022-09-09T02:45:20;10.40;99.90
16160;DHT22;8185;57.818;15.224;2022-09-09T02:47:53;10.40;99.90
16160;DHT22;8185;57.818;15.224;2022-09-09T02:50:28;10.40;99.90
16160;DHT22;8185;57.818;15.224;2022-09-09T02:53:06;10.40;99.90
16160;DHT22;8185;57.818;15.224;2022-09-09T02:55:39;10.30;99.90
16160;DHT22;8185;57.818;15.224;2022-09-09T02:58:10;10.30;99.90
16160;DHT22;8185;57.818;15.224;2022-09-09T03:00:41;10.30;99.90
16160;DHT22;8185;57.818;15.224;2022-09-09T03:03:08;10.40;99.90
16160;DHT22;8185;57.818;15.224;2022-09-09T03:05:36;10.30;99.90
16160;DHT22;8185;57.818;15.224;2022-09-09T03:08:04;10.40;99.90
16160;DHT22;8185;57.818;15.224;2022-09-09T03:10:31;10.40;99.90
16160;DHT22;8185;57.818;15.224;2022-09-09T03:12:58;10.30;99.90
16160;DHT22;8185;57.818;15.224;2022-09-09T03:15:26;10.40;99.90
16160;DHT22;8185;57.818;15.224;2022-09-09T03:17:58;10.40;99.90
16160;DHT22;8185;57.818;15.224;2022-09-09T03:20:27;10.40;99.90
16160;DHT22;8185;57.818;15.224;2022-09-09T03:22:54;10.50;99.90
16160;DHT22;8185;57.818;15.224;2022-09-09T03:25:22;10.50;99.90
16160;DHT22;8185;57.818;15.224;2022-09-09T03:27:52;10.50;99.90
16160;DHT22;8185;57.818;15.224;2022-09-09T03:30:20;10.50;99.90
16160;DHT22;8185;57.818;15.224;2022-09-09T03:32:47;10.40;99.90
16160;DHT22;8185;57.818;15.224;2022-09-09T03:35:16;10.40;99.90
16160;DHT22;8185;57.818;15.224;2022-09-09T03:37:43;10.40;99.90
16160;DHT22;8185;57.818;15.224;2022-09-09T03:40:11;10.50;99.90
16160;DHT22;8185;57.818;15.224;2022-09-09T03:42:39;10.50;99.90
16160;DHT22;8185;57.818;15.224;2022-09-09T03:45:08;10.50;99.90
16160;DHT22;8185;57.818;15.224;2022-09-09T03:47:36;10.60;99.90
16160;DHT22;8185;57.818;15.224;2022-09-09T03:50:04;10.70;99.90
16160;DHT22;8185;57.818;15.224;2022-09-09T03:52:36;10.70;99.90
16160;DHT22;8185;57.818;15.224;2022-09-09T03:55:04;10.80;99.90
16160;DHT22;8185;57.818;15.224;2022-09-09T03:57:32;10.80;99.90
16160;DHT22;8185;57.818;15.224;2022-09-09T04:00:03;10.80;99.90
16160;DHT22;8185;57.818;15.224;2022-09-09T04:02:31;10.90;99.90
16160;DHT22;8185;57.818;15.224;2022-09-09T04:04:58;10.90;99.90
16160;DHT22;8185;57.818;15.224;2022-09-09T04:07:25;10.90;99.90
16160;DHT22;8185;57.818;15.224;2022-09-09T04:09:54;10.90;99.90
16160;DHT22;8185;57.818;15.224;2022-09-09T04:12:21;10.90;99.90
16160;DHT22;8185;57.818;15.224;2022-09-09T04:14:48;10.80;99.90
16160;DHT22;8185;57.818;15.224;2022-09-09T04:17:16;10.80;99.90
16160;DHT22;8185;57.818;15.224;2022-09-09T04:19:43;10.80;99.90
16160;DHT22;8185;57.818;15.224;2022-09-09T04:22:10;10.70;99.90
16160;DHT22;8185;57.818;15.224;2022-09-09T04:24:37;10.70;99.90
16160;DHT22;8185;57.818;15.224;2022-09-09T04:27:06;10.70;99.90
16160;DHT22;8185;57.818;15.224;2022-09-09T04:29:33;10.70;99.90
16160;DHT22;8185;57.818;15.224;2022-09-09T04:32:01;10.70;99.90
16160;DHT22;8185;57.818;15.224;2022-09-09T04:34:28;10.70;99.90
16160;DHT22;8185;57.818;15.224;2022-09-09T04:36:56;10.70;99.90
16160;DHT22;8185;57.818;15.224;2022-09-09T04:39:23;10.70;99.90
16160;DHT22;8185;57.818;15.224;2022-09-09T04:41:50;10.80;99.90
16160;DHT22;8185;57.818;15.224;2022-09-09T04:44:19;10.80;99.90
16160;DHT22;8185;57.818;15.224;2022-09-09T04:46:46;10.90;99.90
16160;DHT22;8185;57.818;15.224;2022-09-09T04:49:13;10.90;99.90
16160;DHT22;8185;57.818;15.224;2022-09-09T04:51:40;11.00;99.90
16160;DHT22;8185;57.818;15.224;2022-09-09T04:54:08;11.00;99.90
16160;DHT22;8185;57.818;15.224;2022-09-09T04:56:36;11.00;99.90
16160;DHT22;8185;57.818;15.224;2022-09-09T04:59:03;11.10;99.90
16160;DHT22;8185;57.818;15.224;2022-09-09T05:01:32;11.10;99.90
16160;DHT22;8185;57.818;15.224;2022-09-09T05:04:00;11.10;99.90
16160;DHT22;8185;57.818;15.224;2022-09-09T05:06:28;11.10;99.90
16160;DHT22;8185;57.818;15.224;2022-09-09T05:08:57;11.20;99.90
16160;DHT22;8185;57.818;15.224;2022-09-09T05:11:26;11.20;99.90
16160;DHT22;8185;57.818;15.224;2022-09-09T05:13:54;11.20;99.90
16160;DHT22;8185;57.818;15.224;2022-09-09T05:16:22;11.20;99.90
16160;DHT22;8185;57.818;15.224;2022-09-09T05:18:51;11.20;99.90
16160;DHT22;8185;57.818;15.224;2022-09-09T05:21:19;11.20;99.90
16160;DHT22;8185;57.818;15.224;2022-09-09T05:23:47;11.20;99.90
16160;DHT22;8185;57.818;15.224;2022-09-09T05:26:16;11.20;99.90
16160;DHT22;8185;57.818;15.224;2022-09-09T05:28:44;11.30;99.90
16160;DHT22;8185;57.818;15.224;2022-09-09T05:31:13;11.40;99.90
16160;DHT22;8185;57.818;15.224;2022-09-09T05:33:41;11.40;99.90
16160;DHT22;8185;57.818;15.224;2022-09-09T05:36:12;11.60;99.90
16160;DHT22;8185;57.818;15.224;2022-09-09T05:38:40;11.60;99.90
16160;DHT22;8185;57.818;15.224;2022-09-09T05:41:08;11.70;99.90
16160;DHT22;8185;57.818;15.224;2022-09-09T05:43:37;11.70;99.90
16160;DHT22;8185;57.818;15.224;2022-09-09T05:46:06;11.80;99.90
16160;DHT22;8185;57.818;15.224;2022-09-09T05:48:35;11.80;99.90
16160;DHT22;8185;57.818;15.224;2022-09-09T05:51:04;11.90;99.90
16160;DHT22;8185;57.818;15.224;2022-09-09T05:53:34;11.90;99.90
16160;DHT22;8185;57.818;15.224;2022-09-09T05:56:03;12.00;99.90
16160;DHT22;8185;57.818;15.224;2022-09-09T05:58:31;12.00;99.90
16160;DHT22;8185;57.818;15.224;2022-09-09T06:01:03;12.10;99.90
16160;DHT22;8185;57.818;15.224;2022-09-09T06:03:30;12.20;99.90
16160;DHT22;8185;57.818;15.224;2022-09-09T06:06:00;12.20;99.90
16160;DHT22;8185;57.818;15.224;2022-09-09T06:08:27;12.30;99.90
16160;DHT22;8185;57.818;15.224;2022-09-09T06:11:01;12.30;99.90
16160;DHT22;8185;57.818;15.224;2022-09-09T06:13:29;12.40;99.90
16160;DHT22;8185;57.818;15.224;2022-09-09T06:15:57;12.40;99.90
16160;DHT22;8185;57.818;15.224;2022-09-09T06:18:26;12.50;99.90
16160;DHT22;8185;57.818;15.224;2022-09-09T06:20:54;12.50;99.90
16160;DHT22;8185;57.818;15.224;2022-09-09T06:23:22;12.50;99.90
16160;DHT22;8185;57.818;15.224;2022-09-09T06:25:49;12.60;99.90
16160;DHT22;8185;57.818;15.224;2022-09-09T06:28:18;12.70;99.90
16160;DHT22;8185;57.818;15.224;2022-09-09T06:30:46;12.80;99.90
16160;DHT22;8185;57.818;15.224;2022-09-09T06:33:13;12.70;99.90
16160;DHT22;8185;57.818;15.224;2022-09-09T06:35:40;12.80;99.90
16160;DHT22;8185;57.818;15.224;2022-09-09T06:38:08;12.80;99.90
16160;DHT22;8185;57.818;15.224;2022-09-09T06:40:35;12.80;99.90
16160;DHT22;8185;57.818;15.224;2022-09-09T06:43:02;12.80;99.90
16160;DHT22;8185;57.818;15.224;2022-09-09T06:45:31;12.90;99.90
16160;DHT22;8185;57.818;15.224;2022-09-09T06:47:58;12.90;99.90
16160;DHT22;8185;57.818;15.224;2022-09-09T06:50:26;12.90;99.90
16160;DHT22;8185;57.818;15.224;2022-09-09T06:52:53;12.90;99.90
16160;DHT22;8185;57.818;15.224;2022-09-09T06:55:20;13.00;99.90
16160;DHT22;8185;57.818;15.224;2022-09-09T06:57:47;13.10;99.90
16160;DHT22;8185;57.818;15.224;2022-09-09T07:00:15;13.20;99.90
16160;DHT22;8185;57.818;15.224;2022-09-09T07:02:45;13.30;99.90
16160;DHT22;8185;57.818;15.224;2022-09-09T07:05:12;13.30;99.90
16160;DHT22;8185;57.818;15.224;2022-09-09T07:07:41;13.40;99.90
16160;DHT22;8185;57.818;15.224;2022-09-09T07:10:09;13.50;99.90
16160;DHT22;8185;57.818;15.224;2022-09-09T07:12:36;13.40;99.90
16160;DHT22;8185;57.818;15.224;2022-09-09T07:15:05;13.40;99.90
16160;DHT22;8185;57.818;15.224;2022-09-09T07:17:32;13.40;99.90
16160;DHT22;8185;57.818;15.224;2022-09-09T07:20:01;13.50;99.90
16160;DHT22;8185;57.818;15.224;2022-09-09T07:22:29;13.70;99.90
16160;DHT22;8185;57.818;15.224;2022-09-09T07:24:57;14.00;99.90
16160;DHT22;8185;57.818;15.224;2022-09-09T07:27:24;14.10;99.90
16160;DHT22;8185;57.818;15.224;2022-09-09T07:29:53;14.10;99.90
16160;DHT22;8185;57.818;15.224;2022-09-09T07:32:20;14.20;99.90
16160;DHT22;8185;57.818;15.224;2022-09-09T07:34:48;14.40;99.90
16160;DHT22;8185;57.818;15.224;2022-09-09T07:37:17;14.40;99.90
16160;DHT22;8185;57.818;15.224;2022-09-09T07:39:44;14.30;99.90
16160;DHT22;8185;57.818;15.224;2022-09-09T07:42:12;14.50;99.90
16160;DHT22;8185;57.818;15.224;2022-09-09T07:44:40;14.60;99.90
16160;DHT22;8185;57.818;15.224;2022-09-09T07:47:08;14.60;99.90
16160;DHT22;8185;57.818;15.224;2022-09-09T07:49:35;14.60;99.90
16160;DHT22;8185;57.818;15.224;2022-09-09T07:52:02;14.60;99.90
16160;DHT22;8185;57.818;15.224;2022-09-09T07:54:31;14.50;99.90
16160;DHT22;8185;57.818;15.224;2022-09-09T07:56:58;14.60;99.90
16160;DHT22;8185;57.818;15.224;2022-09-09T07:59:25;14.80;99.90
16160;DHT22;8185;57.818;15.224;2022-09-09T08:01:54;14.80;99.90
16160;DHT22;8185;57.818;15.224;2022-09-09T08:04:23;14.90;99.90
16160;DHT22;8185;57.818;15.224;2022-09-09T08:06:54;15.10;99.90
16160;DHT22;8185;57.818;15.224;2022-09-09T08:09:23;15.20;99.90
16160;DHT22;8185;57.818;15.224;2022-09-09T08:11:54;15.40;99.90
16160;DHT22;8185;57.818;15.224;2022-09-09T08:14:22;15.50;99.90
16160;DHT22;8185;57.818;15.224;2022-09-09T08:16:50;15.50;99.90
16160;DHT22;8185;57.818;15.224;2022-09-09T08:19:18;15.40;99.90
16160;DHT22;8185;57.818;15.224;2022-09-09T08:21:46;15.50;99.90
16160;DHT22;8185;57.818;15.224;2022-09-09T08:24:15;15.70;99.90
16160;DHT22;8185;57.818;15.224;2022-09-09T08:26:44;15.90;99.90
16160;DHT22;8185;57.818;15.224;2022-09-09T08:29:14;15.90;99.90
16160;DHT22;8185;57.818;15.224;2022-09-09T08:31:43;15.80;99.90
16160;DHT22;8185;57.818;15.224;2022-09-09T08:34:10;15.50;99.90
16160;DHT22;8185;57.818;15.224;2022-09-09T08:36:40;15.40;99.90
16160;DHT22;8185;57.818;15.224;2022-09-09T08:39:09;15.30;99.90
16160;DHT22;8185;57.818;15.224;2022-09-09T08:41:49;15.30;99.90
16160;DHT22;8185;57.818;15.224;2022-09-09T08:44:26;15.30;99.90
16160;DHT22;8185;57.818;15.224;2022-09-09T08:47:03;15.30;99.90
16160;DHT22;8185;57.818;15.224;2022-09-09T08:49:51;15.30;99.90
16160;DHT22;8185;57.818;15.224;2022-09-09T08:52:27;15.20;99.90
16160;DHT22;8185;57.818;15.224;2022-09-09T08:54:58;15.20;99.90
16160;DHT22;8185;57.818;15.224;2022-09-09T08:57:29;15.20;99.90
16160;DHT22;8185;57.818;15.224;2022-09-09T08:59:59;15.30;99.90
16160;DHT22;8185;57.818;15.224;2022-09-09T09:02:31;15.30;99.90
16160;DHT22;8185;57.818;15.224;2022-09-09T09:05:09;15.20;99.90
16160;DHT22;8185;57.818;15.224;2022-09-09T09:07:54;15.20;99.90
16160;DHT22;8185;57.818;15.224;2022-09-09T09:10:35;15.20;99.90
16160;DHT22;8185;57.818;15.224;2022-09-09T09:13:11;15.20;99.90
16160;DHT22;8185;57.818;15.224;2022-09-09T09:15:42;15.20;99.90
16160;DHT22;8185;57.818;15.224;2022-09-09T09:18:12;15.20;99.90
16160;DHT22;8185;57.818;15.224;2022-09-09T09:20:49;15.30;99.90
16160;DHT22;8185;57.818;15.224;2022-09-09T09:23:22;15.40;99.90
16160;DHT22;8185;57.818;15.224;2022-09-09T09:25:50;15.70;99.90
16160;DHT22;8185;57.818;15.224;2022-09-09T09:28:22;16.10;99.90
16160;DHT22;8185;57.818;15.224;2022-09-09T09:30:55;16.20;99.90
16160;DHT22;8185;57.818;15.224;2022-09-09T09:33:30;16.00;99.90
16160;DHT22;8185;57.818;15.224;2022-09-09T09:35:58;16.00;99.90
16160;DHT22;8185;57.818;15.224;2022-09-09T09:38:27;15.70;99.90
16160;DHT22;8185;57.818;15.224;2022-09-09T09:40:56;15.60;99.90
16160;DHT22;8185;57.818;15.224;2022-09-09T09:43:27;15.60;99.90
16160;DHT22;8185;57.818;15.224;2022-09-09T09:45:57;15.80;99.90
16160;DHT22;8185;57.818;15.224;2022-09-09T09:48:25;15.80;99.90
16160;DHT22;8185;57.818;15.224;2022-09-09T09:50:56;16.00;99.90
16160;DHT22;8185;57.818;15.224;2022-09-09T09:53:26;16.20;99.90
16160;DHT22;8185;57.818;15.224;2022-09-09T09:55:56;16.10;99.90
16160;DHT22;8185;57.818;15.224;2022-09-09T09:58:26;16.10;99.90
16160;DHT22;8185;57.818;15.224;2022-09-09T10:00:57;16.30;99.90
16160;DHT22;8185;57.818;15.224;2022-09-09T10:03:26;16.30;99.90
16160;DHT22;8185;57.818;15.224;2022-09-09T10:05:54;16.30;99.90
16160;DHT22;8185;57.818;15.224;2022-09-09T10:08:23;16.20;99.90
16160;DHT22;8185;57.818;15.224;2022-09-09T10:11:04;16.00;99.90
16160;DHT22;8185;57.818;15.224;2022-09-09T10:13:47;15.90;99.90
16160;DHT22;8185;57.818;15.224;2022-09-09T10:16:29;15.60;99.90
16160;DHT22;8185;57.818;15.224;2022-09-09T10:19:03;15.40;99.90
16160;DHT22;8185;57.818;15.224;2022-09-09T10:21:57;15.50;99.90
16160;DHT22;8185;57.818;15.224;2022-09-09T10:24:47;15.30;99.90
16160;DHT22;8185;57.818;15.224;2022-09-09T10:27:21;15.30;99.90
16160;DHT22;8185;57.818;15.224;2022-09-09T10:30:01;15.20;99.90
16160;DHT22;8185;57.818;15.224;2022-09-09T10:32:41;15.20;99.90
16160;DHT22;8185;57.818;15.224;2022-09-09T10:35:29;15.20;99.90
16160;DHT22;8185;57.818;15.224;2022-09-09T10:38:15;15.40;99.90
16160;DHT22;8185;57.818;15.224;2022-09-09T10:40:59;15.40;99.90
16160;DHT22;8185;57.818;15.224;2022-09-09T10:43:44;15.40;99.90
16160;DHT22;8185;57.818;15.224;2022-09-09T10:46:19;15.50;99.90
16160;DHT22;8185;57.818;15.224;2022-09-09T10:49:06;15.60;99.90
16160;DHT22;8185;57.818;15.224;2022-09-09T10:51:42;15.50;99.90
16160;DHT22;8185;57.818;15.224;2022-09-09T10:54:25;15.40;99.90
16160;DHT22;8185;57.818;15.224;2022-09-09T10:57:00;15.40;99.90
16160;DHT22;8185;57.818;15.224;2022-09-09T10:59:31;15.40;99.90
16160;DHT22;8185;57.818;15.224;2022-09-09T11:02:05;15.50;99.90
16160;DHT22;8185;57.818;15.224;2022-09-09T11:04:42;15.70;99.90
16160;DHT22;8185;57.818;15.224;2022-09-09T11:07:22;16.10;99.90
16160;DHT22;8185;57.818;15.224;2022-09-09T11:09:56;16.40;99.90
16160;DHT22;8185;57.818;15.224;2022-09-09T11:12:27;16.70;99.90
16160;DHT22;8185;57.818;15.224;2022-09-09T11:15:01;16.60;99.90
16160;DHT22;8185;57.818;15.224;2022-09-09T11:17:38;16.70;99.90
16160;DHT22;8185;57.818;15.224;2022-09-09T11:20:13;16.80;99.90
16160;DHT22;8185;57.818;15.224;2022-09-09T11:22:45;16.80;99.90
16160;DHT22;8185;57.818;15.224;2022-09-09T11:25:17;16.60;99.90
16160;DHT22;8185;57.818;15.224;2022-09-09T11:28:02;16.40;99.90
16160;DHT22;8185;57.818;15.224;2022-09-09T11:30:42;16.50;99.90
16160;DHT22;8185;57.818;15.224;2022-09-09T11:36:55;16.40;99.90
16160;DHT22;8185;57.818;15.224;2022-09-09T11:40:07;16.60;99.90
16160;DHT22;8185;57.818;15.224;2022-09-09T11:42:36;16.60;99.90
16160;DHT22;8185;57.818;15.224;2022-09-09T11:45:18;16.70;99.90
16160;DHT22;8185;57.818;15.224;2022-09-09T11:47:52;16.80;99.90
16160;DHT22;8185;57.818;15.224;2022-09-09T11:50:29;16.60;99.90
16160;DHT22;8185;57.818;15.224;2022-09-09T11:53:19;16.20;99.90
16160;DHT22;8185;57.818;15.224;2022-09-09T11:56:11;16.10;99.90
16160;DHT22;8185;57.818;15.224;2022-09-09T11:58:44;16.10;99.90
16160;DHT22;8185;57.818;15.224;2022-09-09T12:01:39;16.10;99.90
16160;DHT22;8185;57.818;15.224;2022-09-09T12:04:37;16.20;99.90
16160;DHT22;8185;57.818;15.224;2022-09-09T12:07:28;16.10;99.90
16160;DHT22;8185;57.818;15.224;2022-09-09T12:10:01;16.10;99.90
16160;DHT22;8185;57.818;15.224;2022-09-09T12:12:31;16.10;99.90
16160;DHT22;8185;57.818;15.224;2022-09-09T12:15:21;15.90;99.90
16160;DHT22;8185;57.818;15.224;2022-09-09T12:17:50;15.80;99.90
16160;DHT22;8185;57.818;15.224;2022-09-09T12:20:20;15.70;99.90
16160;DHT22;8185;57.818;15.224;2022-09-09T12:23:15;15.60;99.90
16160;DHT22;8185;57.818;15.224;2022-09-09T12:28:49;15.30;99.90
16160;DHT22;8185;57.818;15.224;2022-09-09T12:31:22;15.20;99.90
16160;DHT22;8185;57.818;15.224;2022-09-09T12:33:51;15.10;99.90
16160;DHT22;8185;57.818;15.224;2022-09-09T12:36:21;15.10;99.90
16160;DHT22;8185;57.818;15.224;2022-09-09T12:38:48;15.10;99.90
16160;DHT22;8185;57.818;15.224;2022-09-09T12:41:24;15.10;99.90
16160;DHT22;8185;57.818;15.224;2022-09-09T12:44:02;15.10;99.90
16160;DHT22;8185;57.818;15.224;2022-09-09T12:46:35;15.20;99.90
16160;DHT22;8185;57.818;15.224;2022-09-09T12:49:03;15.20;99.90
16160;DHT22;8185;57.818;15.224;2022-09-09T12:51:33;15.40;99.90
16160;DHT22;8185;57.818;15.224;2022-09-09T12:54:01;15.50;99.90
16160;DHT22;8185;57.818;15.224;2022-09-09T12:56:32;15.50;99.90
16160;DHT22;8185;57.818;15.224;2022-09-09T12:59:01;15.50;99.90
16160;DHT22;8185;57.818;15.224;2022-09-09T13:01:30;15.50;99.90
16160;DHT22;8185;57.818;15.224;2022-09-09T13:03:58;15.50;99.90
16160;DHT22;8185;57.818;15.224;2022-09-09T13:06:27;15.50;99.90
16160;DHT22;8185;57.818;15.224;2022-09-09T13:08:56;15.40;99.90
16160;DHT22;8185;57.818;15.224;2022-09-09T13:11:27;15.40;99.90
16160;DHT22;8185;57.818;15.224;2022-09-09T13:13:57;15.40;99.90
16160;DHT22;8185;57.818;15.224;2022-09-09T13:16:26;15.50;99.90
16160;DHT22;8185;57.818;15.224;2022-09-09T13:18:58;15.60;99.90
16160;DHT22;8185;57.818;15.224;2022-09-09T13:21:33;15.60;99.90
16160;DHT22;8185;57.818;15.224;2022-09-09T13:24:01;15.60;99.90
16160;DHT22;8185;57.818;15.224;2022-09-09T13:26:30;15.50;99.90
16160;DHT22;8185;57.818;15.224;2022-09-09T13:29:17;15.50;99.90
16160;DHT22;8185;57.818;15.224;2022-09-09T13:31:45;15.50;99.90
16160;DHT22;8185;57.818;15.224;2022-09-09T13:34:13;15.50;99.90
16160;DHT22;8185;57.818;15.224;2022-09-09T13:36:41;15.50;99.90
16160;DHT22;8185;57.818;15.224;2022-09-09T13:39:16;15.60;99.90
16160;DHT22;8185;57.818;15.224;2022-09-09T13:41:45;15.50;99.90
16160;DHT22;8185;57.818;15.224;2022-09-09T13:44:20;15.50;99.90
16160;DHT22;8185;57.818;15.224;2022-09-09T13:47:00;15.40;99.90
16160;DHT22;8185;57.818;15.224;2022-09-09T13:49:29;15.40;99.90
16160;DHT22;8185;57.818;15.224;2022-09-09T13:52:10;15.50;99.90
16160;DHT22;8185;57.818;15.224;2022-09-09T13:54:37;15.40;99.90
16160;DHT22;8185;57.818;15.224;2022-09-09T13:57:05;15.40;99.90
16160;DHT22;8185;57.818;15.224;2022-09-09T13:59:34;15.40;99.90
16160;DHT22;8185;57.818;15.224;2022-09-09T14:02:02;15.30;99.90
16160;DHT22;8185;57.818;15.224;2022-09-09T14:04:29;15.40;99.90
16160;DHT22;8185;57.818;15.224;2022-09-09T14:06:56;15.40;99.90
16160;DHT22;8185;57.818;15.224;2022-09-09T14:09:25;15.40;99.90
16160;DHT22;8185;57.818;15.224;2022-09-09T14:11:52;15.30;99.90
16160;DHT22;8185;57.818;15.224;2022-09-09T14:14:21;15.10;99.90
16160;DHT22;8185;57.818;15.224;2022-09-09T14:16:49;15.10;99.90
16160;DHT22;8185;57.818;15.224;2022-09-09T14:19:17;15.00;99.90
16160;DHT22;8185;57.818;15.224;2022-09-09T14:21:44;14.80;99.90
16160;DHT22;8185;57.818;15.224;2022-09-09T14:24:11;14.80;99.90
16160;DHT22;8185;57.818;15.224;2022-09-09T14:26:38;14.80;99.90
16160;DHT22;8185;57.818;15.224;2022-09-09T14:29:06;14.80;99.90
16160;DHT22;8185;57.818;15.224;2022-09-09T14:31:33;14.80;99.90
16160;DHT22;8185;57.818;15.224;2022-09-09T14:34:02;14.80;99.90
16160;DHT22;8185;57.818;15.224;2022-09-09T14:36:29;14.80;99.90
16160;DHT22;8185;57.818;15.224;2022-09-09T14:38:57;14.80;99.90
16160;DHT22;8185;57.818;15.224;2022-09-09T14:41:24;14.80;99.90
16160;DHT22;8185;57.818;15.224;2022-09-09T14:43:51;14.80;99.90
16160;DHT22;8185;57.818;15.224;2022-09-09T14:46:20;14.70;99.90
16160;DHT22;8185;57.818;15.224;2022-09-09T14:48:47;14.70;99.90
16160;DHT22;8185;57.818;15.224;2022-09-09T14:51:18;14.70;99.90
16160;DHT22;8185;57.818;15.224;2022-09-09T14:53:50;14.70;99.90
16160;DHT22;8185;57.818;15.224;2022-09-09T14:56:20;14.70;99.90
16160;DHT22;8185;57.818;15.224;2022-09-09T14:58:49;14.60;99.90
16160;DHT22;8185;57.818;15.224;2022-09-09T15:01:17;14.60;99.90
16160;DHT22;8185;57.818;15.224;2022-09-09T15:03:50;14.50;99.90
16160;DHT22;8185;57.818;15.224;2022-09-09T15:06:19;15.30;99.90
16160;DHT22;8185;57.818;15.224;2022-09-09T15:08:47;14.40;99.90
16160;DHT22;8185;57.818;15.224;2022-09-09T15:11:15;14.40;99.90
16160;DHT22;8185;57.818;15.224;2022-09-09T15:13:43;14.30;99.90
16160;DHT22;8185;57.818;15.224;2022-09-09T15:16:12;14.30;99.90
16160;DHT22;8185;57.818;15.224;2022-09-09T15:18:40;14.10;99.90
16160;DHT22;8185;57.818;15.224;2022-09-09T15:21:09;14.00;99.90
16160;DHT22;8185;57.818;15.224;2022-09-09T15:23:38;13.80;99.90
16160;DHT22;8185;57.818;15.224;2022-09-09T15:26:06;13.80;99.90
16160;DHT22;8185;57.818;15.224;2022-09-09T15:28:34;13.60;99.90
16160;DHT22;8185;57.818;15.224;2022-09-09T15:31:06;13.50;99.90
16160;DHT22;8185;57.818;15.224;2022-09-09T15:33:34;13.50;99.90
16160;DHT22;8185;57.818;15.224;2022-09-09T15:36:13;13.40;99.90
16160;DHT22;8185;57.818;15.224;2022-09-09T15:38:42;13.40;99.90
16160;DHT22;8185;57.818;15.224;2022-09-09T15:41:10;13.30;99.90
16160;DHT22;8185;57.818;15.224;2022-09-09T15:43:37;13.30;99.90
16160;DHT22;8185;57.818;15.224;2022-09-09T15:46:23;13.20;99.90
16160;DHT22;8185;57.818;15.224;2022-09-09T15:48:54;13.20;99.90
16160;DHT22;8185;57.818;15.224;2022-09-09T15:51:23;13.20;99.90
16160;DHT22;8185;57.818;15.224;2022-09-09T15:53:56;13.20;99.90
16160;DHT22;8185;57.818;15.224;2022-09-09T15:56:24;13.20;99.90
16160;DHT22;8185;57.818;15.224;2022-09-09T15:58:51;13.20;99.90
16160;DHT22;8185;57.818;15.224;2022-09-09T16:01:19;13.20;99.90
16160;DHT22;8185;57.818;15.224;2022-09-09T16:03:46;13.20;99.90
16160;DHT22;8185;57.818;15.224;2022-09-09T16:06:17;13.20;99.90